Annamarie — CQFZ — position and weather

sailwx.info

Track history (hours):
 
Tides and Currents Weather Stations Pressure Air Temp Water Temp Dewpoint Dewpoint Depression Visibility Wind Speed Wind Dir Waves Ship Positions

Annamarie

Last reported at 2017-Nov-20 00:23 UTC. Time now 2017-Nov-21 10:17 UTC.
Position N 28°08' W 015°25'.

Length 138 m; draft 7.8 m.

Type: Cargo ship. MMSI: 255805627.

Date/timePositionNaut miles runAvg speedWind from/ knotsBaromVisibWave heightAir tempDewpointWater temp
2017-Nov-20 00:23N 28°08' W 015°25'0 0.0
2017-Nov-19 23:53N 28°08' W 015°25'0 0.0
2017-Nov-19 23:23N 28°08' W 015°25'0 0.0
2017-Nov-19 22:50N 28°08' W 015°25'0 0.0
2017-Nov-19 22:23N 28°08' W 015°25'0 0.0
2017-Nov-19 21:56N 28°08' W 015°25'0 0.0
2017-Nov-19 21:26N 28°08' W 015°25'0 0.0
2017-Nov-19 20:56N 28°08' W 015°25'0 0.0
2017-Nov-19 20:23N 28°08' W 015°25'0 0.0
2017-Nov-19 19:56N 28°08' W 015°25'0 0.0
2017-Nov-19 19:31N 28°08' W 015°25'0 0.1
2017-Nov-19 19:01N 28°08' W 015°25'2 4.3
2017-Nov-19 18:31N 28°07' W 015°23'612.7
2017-Nov-19 18:01N 28°12' W 015°18'816.8
2017-Nov-19 17:31N 28°19' W 015°12'816.8
2017-Nov-19 17:01N 28°25' W 015°06'816.5
2017-Nov-19 16:30N 28°32' W 015°00'  
2017-Nov-14 21:26N 29°21' W 013°04'816.3
2017-Nov-14 20:57N 29°14' W 013°09'1415.8
2017-Nov-14 20:06N 29°04' W 013°19'116.0
2017-Nov-14 20:00N 29°03' W 013°20'815.6
2017-Nov-14 19:28N 28°58' W 013°28'3 0.7
2017-Nov-14 15:27N 28°58' W 013°32'0 0.0
2017-Nov-14 14:57N 28°58' W 013°32'0 0.2
2017-Nov-14 14:30N 28°58' W 013°32'3 5.9
2017-Nov-14 14:00N 28°55' W 013°33'816.9
2017-Nov-14 13:30N 28°48' W 013°37'18 2.2
2017-Nov-14 05:11N 28°33' W 013°48'1 6.7
2017-Nov-14 04:59N 28°34' W 013°48'3 6.7
2017-Nov-14 04:28N 28°37' W 013°47'4 7.1
2017-Nov-14 03:59N 28°41' W 013°47'4 6.7
2017-Nov-14 03:27N 28°44' W 013°47'3 6.6
2017-Nov-14 03:01N 28°47' W 013°48'4 7.1
2017-Nov-14 02:30N 28°48' W 013°52'5 9.4
2017-Nov-14 02:00N 28°47' W 013°58'5 9.6
2017-Nov-14 01:26N 28°47' W 014°04'510.5
2017-Nov-14 00:59N 28°47' W 014°09'811.0
2017-Nov-14 00:16N 28°46' W 014°18'310.5
2017-Nov-14 00:00N 28°45' W 014°21'810.7
2017-Nov-13 23:14N 28°44' W 014°30'310.8
2017-Nov-13 22:57N 28°44' W 014°34'510.9
2017-Nov-13 22:30N 28°43' W 014°39'510.9
2017-Nov-13 22:00N 28°42' W 014°46'49 2.4
2017-Nov-13 01:56N 28°08' W 015°25'0 0.0
2017-Nov-13 01:26N 28°08' W 015°25'0 0.0
2017-Nov-13 00:56N 28°08' W 015°25'0 0.0
2017-Nov-13 00:29N 28°08' W 015°25'0 0.0
2017-Nov-12 23:59N 28°08' W 015°25'0 0.0
2017-Nov-12 23:29N 28°08' W 015°25'0 0.0
2017-Nov-12 22:59N 28°08' W 015°25'0 0.0
2017-Nov-12 22:29N 28°08' W 015°25'0 0.0
2017-Nov-12 21:59N 28°08' W 015°25'0 0.0
2017-Nov-12 21:29N 28°08' W 015°25'0 0.0
2017-Nov-12 20:59N 28°08' W 015°25'0 0.0
2017-Nov-12 20:29N 28°08' W 015°25'0 0.0
2017-Nov-12 20:00N 28°08' W 015°25'0 0.8
2017-Nov-12 19:30N 28°08' W 015°25'2 3.6
2017-Nov-12 19:00N 28°07' W 015°23'2 4.6
2017-Nov-12 18:30N 28°09' W 015°21'816.5
2017-Nov-12 18:00N 28°15' W 015°15'816.8
2017-Nov-12 17:30N 28°22' W 015°09'817.0
2017-Nov-12 17:00N 28°28' W 015°03'917.0
2017-Nov-12 16:30N 28°35' W 014°57'816.6
2017-Nov-12 16:00N 28°42' W 014°51'816.6
2017-Nov-12 15:30N 28°48' W 014°45'816.6
2017-Nov-12 15:00N 28°55' W 014°39'816.6
2017-Nov-12 14:31N 29°01' W 014°34'1016.5
2017-Nov-12 13:54N 29°09' W 014°26'917.0
2017-Nov-12 13:22N 29°16' W 014°20'916.6
2017-Nov-12 12:51N 29°23' W 014°14'4116.7
2017-Nov-12 10:25N 29°54' W 013°44'816.5
2017-Nov-12 09:57N 30°00' W 013°39'716.4
2017-Nov-12 09:30N 30°06' W 013°34'1616.7
2017-Nov-12 08:33N 30°19' W 013°22'117.2
2017-Nov-12 08:30N 30°19' W 013°21'5616.8
2017-Nov-12 05:11N 31°03' W 012°41'1016.8
2017-Nov-12 04:36N 31°10' W 012°34'12316.8
2017-Nov-11 21:18N 32°46' W 011°03'  
Track history (hours):
 
Tides and Currents Weather Stations Pressure Air Temp Water Temp Dewpoint Dewpoint Depression Visibility Wind Speed Wind Dir Waves Ship Positions

Annamarie

Last reported at 2017-Nov-20 00:23 UTC. Time now 2017-Nov-21 10:17 UTC.
Position N 28°08' W 015°25'.

Length 138 m; draft 7.8 m.

Type: Cargo ship. MMSI: 255805627.

Date/timePositionNaut miles runAvg speedWind from/ knotsBaromVisibWave heightAir tempDewpointWater temp
2017-Nov-20 00:23N 28°08' W 015°25'0 0.0
2017-Nov-19 23:53N 28°08' W 015°25'0 0.0
2017-Nov-19 23:23N 28°08' W 015°25'0 0.0
2017-Nov-19 22:50N 28°08' W 015°25'0 0.0
2017-Nov-19 22:23N 28°08' W 015°25'0 0.0
2017-Nov-19 21:56N 28°08' W 015°25'0 0.0
2017-Nov-19 21:26N 28°08' W 015°25'0 0.0
2017-Nov-19 20:56N 28°08' W 015°25'0 0.0
2017-Nov-19 20:23N 28°08' W 015°25'0 0.0
2017-Nov-19 19:56N 28°08' W 015°25'0 0.0
2017-Nov-19 19:31N 28°08' W 015°25'0 0.1
2017-Nov-19 19:01N 28°08' W 015°25'2 4.3
2017-Nov-19 18:31N 28°07' W 015°23'612.7
2017-Nov-19 18:01N 28°12' W 015°18'816.8
2017-Nov-19 17:31N 28°19' W 015°12'816.8
2017-Nov-19 17:01N 28°25' W 015°06'816.5
2017-Nov-19 16:30N 28°32' W 015°00'  
2017-Nov-14 21:26N 29°21' W 013°04'816.3
2017-Nov-14 20:57N 29°14' W 013°09'1415.8
2017-Nov-14 20:06N 29°04' W 013°19'116.0
2017-Nov-14 20:00N 29°03' W 013°20'815.6
2017-Nov-14 19:28N 28°58' W 013°28'3 0.7
2017-Nov-14 15:27N 28°58' W 013°32'0 0.0
2017-Nov-14 14:57N 28°58' W 013°32'0 0.2
2017-Nov-14 14:30N 28°58' W 013°32'3 5.9
2017-Nov-14 14:00N 28°55' W 013°33'816.9
2017-Nov-14 13:30N 28°48' W 013°37'18 2.2
2017-Nov-14 05:11N 28°33' W 013°48'1 6.7
2017-Nov-14 04:59N 28°34' W 013°48'3 6.7
2017-Nov-14 04:28N 28°37' W 013°47'4 7.1
2017-Nov-14 03:59N 28°41' W 013°47'4 6.7
2017-Nov-14 03:27N 28°44' W 013°47'3 6.6
2017-Nov-14 03:01N 28°47' W 013°48'4 7.1
2017-Nov-14 02:30N 28°48' W 013°52'5 9.4
2017-Nov-14 02:00N 28°47' W 013°58'5 9.6
2017-Nov-14 01:26N 28°47' W 014°04'510.5
2017-Nov-14 00:59N 28°47' W 014°09'811.0
2017-Nov-14 00:16N 28°46' W 014°18'310.5
2017-Nov-14 00:00N 28°45' W 014°21'810.7
2017-Nov-13 23:14N 28°44' W 014°30'310.8
2017-Nov-13 22:57N 28°44' W 014°34'510.9
2017-Nov-13 22:30N 28°43' W 014°39'510.9
2017-Nov-13 22:00N 28°42' W 014°46'49 2.4
2017-Nov-13 01:56N 28°08' W 015°25'0 0.0
2017-Nov-13 01:26N 28°08' W 015°25'0 0.0
2017-Nov-13 00:56N 28°08' W 015°25'0 0.0
2017-Nov-13 00:29N 28°08' W 015°25'0 0.0
2017-Nov-12 23:59N 28°08' W 015°25'0 0.0
2017-Nov-12 23:29N 28°08' W 015°25'0 0.0
2017-Nov-12 22:59N 28°08' W 015°25'0 0.0
2017-Nov-12 22:29N 28°08' W 015°25'0 0.0
2017-Nov-12 21:59N 28°08' W 015°25'0 0.0
2017-Nov-12 21:29N 28°08' W 015°25'0 0.0
2017-Nov-12 20:59N 28°08' W 015°25'0 0.0
2017-Nov-12 20:29N 28°08' W 015°25'0 0.0
2017-Nov-12 20:00N 28°08' W 015°25'0 0.8
2017-Nov-12 19:30N 28°08' W 015°25'2 3.6
2017-Nov-12 19:00N 28°07' W 015°23'2 4.6
2017-Nov-12 18:30N 28°09' W 015°21'816.5
2017-Nov-12 18:00N 28°15' W 015°15'816.8
2017-Nov-12 17:30N 28°22' W 015°09'817.0
2017-Nov-12 17:00N 28°28' W 015°03'917.0
2017-Nov-12 16:30N 28°35' W 014°57'816.6
2017-Nov-12 16:00N 28°42' W 014°51'816.6
2017-Nov-12 15:30N 28°48' W 014°45'816.6
2017-Nov-12 15:00N 28°55' W 014°39'816.6
2017-Nov-12 14:31N 29°01' W 014°34'1016.5
2017-Nov-12 13:54N 29°09' W 014°26'917.0
2017-Nov-12 13:22N 29°16' W 014°20'916.6
2017-Nov-12 12:51N 29°23' W 014°14'4116.7
2017-Nov-12 10:25N 29°54' W 013°44'816.5
2017-Nov-12 09:57N 30°00' W 013°39'716.4
2017-Nov-12 09:30N 30°06' W 013°34'1616.7
2017-Nov-12 08:33N 30°19' W 013°22'117.2
2017-Nov-12 08:30N 30°19' W 013°21'5616.8
2017-Nov-12 05:11N 31°03' W 012°41'1016.8
2017-Nov-12 04:36N 31°10' W 012°34'12316.8
2017-Nov-11 21:18N 32°46' W 011°03'  

Dump ship's entire track history